Time;durP1;ratioP1;P1;durP2;ratioP2;P2;SDS_P1;SDS_P2;PMS_P1;PMS_P2;Temp;Humidity;BMP_temperature;BMP_pressure;BME280_temperature;BME280_humidity;BME280_pressure;Samples;Min_cycle;Max_cycle;Signal;HPM_P1;HPM_P2
2022/09/25 00:00:54;;;;;;;1.63;0.93;;;;;;;22.52;45.99;96578.03;5035055;28;20025;-34
2022/09/25 00:03:21;;;;;;;1.27;0.73;;;;;;;22.51;45.55;96557.19;5034832;28;20072;-35
2022/09/25 00:05:47;;;;;;;2.35;0.85;;;;;;;22.68;45.82;96568.25;5035170;28;20099;-34
2022/09/25 00:08:14;;;;;;;1.38;0.88;;;;;;;22.74;45.36;96560.72;5035106;28;20029;-34
2022/09/25 00:10:45;;;;;;;0.90;0.80;;;;;;;22.80;44.88;96555.94;5034970;28;20033;-34
2022/09/25 00:13:11;;;;;;;1.38;0.80;;;;;;;22.74;45.21;96555.19;5034762;28;20469;-34
2022/09/25 00:15:37;;;;;;;1.25;1.00;;;;;;;22.80;45.28;96559.47;5034887;28;20083;-34
2022/09/25 00:18:03;;;;;;;1.15;0.70;;;;;;;22.88;44.71;96556.94;5035180;28;20511;-34
2022/09/25 00:20:28;;;;;;;1.67;0.90;;;;;;;22.75;45.33;96545.66;5035045;28;20037;-34
2022/09/25 00:22:54;;;;;;;2.00;0.80;;;;;;;22.80;45.16;96542.13;5034824;28;20112;-34
2022/09/25 00:25:19;;;;;;;2.45;0.70;;;;;;;22.73;45.67;96534.34;5034762;28;20108;-34
2022/09/25 00:27:47;;;;;;;0.93;0.70;;;;;;;22.73;46.22;96532.31;5034190;28;20029;-35
2022/09/25 00:30:15;;;;;;;1.00;0.75;;;;;;;22.78;45.45;96530.81;5034028;28;20018;-34
2022/09/25 00:32:40;;;;;;;1.10;0.80;;;;;;;22.91;45.18;96536.56;5034546;28;20052;-34
2022/09/25 00:35:07;;;;;;;2.05;0.95;;;;;;;22.98;45.36;96525.00;5034377;28;20030;-34
2022/09/25 00:37:33;;;;;;;2.38;0.82;;;;;;;23.01;44.94;96521.22;5034306;28;20060;-34
2022/09/25 00:39:59;;;;;;;1.30;0.77;;;;;;;22.89;44.98;96505.91;5034221;28;20487;-34
2022/09/25 00:42:25;;;;;;;1.38;1.00;;;;;;;22.85;45.57;96510.97;5034362;28;20104;-34
2022/09/25 00:44:57;;;;;;;2.00;1.02;;;;;;;22.74;45.83;96499.91;5034245;28;20026;-34
2022/09/25 00:47:46;;;;;;;1.83;0.85;;;;;;;22.77;45.92;96496.88;5034333;28;20385;-34
2022/09/25 00:50:32;;;;;;;1.60;0.80;;;;;;;22.81;45.76;96488.34;5034419;28;20108;-34
2022/09/25 00:53:18;;;;;;;2.65;1.10;;;;;;;23.00;45.30;96488.53;5034244;28;20017;-34
2022/09/25 00:55:45;;;;;;;1.52;0.90;;;;;;;23.06;45.90;96481.72;5034080;28;20025;-34
2022/09/25 00:58:13;;;;;;;2.15;1.33;;;;;;;22.97;46.64;96497.88;5033941;28;20021;-34
2022/09/25 01:00:40;;;;;;;2.75;1.15;;;;;;;23.09;45.58;96489.03;5033964;28;20104;-34
2022/09/25 01:03:06;;;;;;;1.42;0.98;;;;;;;23.07;45.45;96483.25;5033869;28;20040;-34
2022/09/25 01:05:35;;;;;;;1.95;0.90;;;;;;;23.05;45.74;96476.69;5034056;28;20028;-34
2022/09/25 01:08:03;;;;;;;2.33;1.33;;;;;;;22.95;46.10;96476.25;5033620;28;20030;-34
2022/09/25 01:10:28;;;;;;;1.98;1.02;;;;;;;23.02;45.85;96474.94;5034164;28;20485;-34
2022/09/25 01:12:56;;;;;;;3.20;1.13;;;;;;;22.83;46.27;96485.81;5033794;28;20097;-34
2022/09/25 01:15:53;;;;;;;1.83;1.10;;;;;;;22.89;46.22;96484.53;5031391;28;20040;-34
2022/09/25 01:18:21;;;;;;;1.60;1.00;;;;;;;22.65;47.42;96478.78;5032936;28;20029;-34
2022/09/25 01:21:16;;;;;;;1.55;0.90;;;;;;;22.69;47.57;96464.72;5033815;28;20546;-34
2022/09/25 01:23:58;;;;;;;2.22;1.00;;;;;;;22.70;47.44;96455.16;5031321;28;20465;-34
2022/09/25 01:26:47;;;;;;;1.17;0.88;;;;;;;22.82;47.02;96451.88;5031654;28;20188;-34
2022/09/25 01:29:17;;;;;;;2.08;0.90;;;;;;;22.85;46.79;96466.72;5031452;28;20029;-34
2022/09/25 01:31:46;;;;;;;4.00;1.00;;;;;;;22.82;47.19;96473.25;5031457;28;20036;-34
2022/09/25 01:34:18;;;;;;;2.08;1.20;;;;;;;22.88;46.33;96476.75;5031373;28;20065;-34
2022/09/25 01:36:54;;;;;;;3.30;1.25;;;;;;;22.89;46.78;96484.53;5031370;28;20080;-34
2022/09/25 01:39:29;;;;;;;1.88;1.10;;;;;;;22.85;46.73;96484.06;5031197;28;20037;-34
2022/09/25 01:41:54;;;;;;;1.10;0.85;;;;;;;22.83;46.57;96492.09;5031315;28;20107;-34
2022/09/25 01:44:36;;;;;;;1.30;0.85;;;;;;;22.95;46.78;96478.25;5031729;28;20501;-34
2022/09/25 01:47:13;;;;;;;2.08;0.88;;;;;;;23.05;46.53;96485.00;5031491;28;20033;-34
2022/09/25 01:49:43;;;;;;;2.83;1.00;;;;;;;22.95;46.42;96476.25;5031237;28;20393;-34
2022/09/25 01:52:19;;;;;;;2.38;0.85;;;;;;;22.99;46.58;96476.75;5031274;28;20523;-34
2022/09/25 01:54:50;;;;;;;1.75;1.10;;;;;;;23.07;46.11;96477.72;5031147;28;20043;-34
2022/09/25 01:57:22;;;;;;;1.95;1.20;;;;;;;23.05;46.55;96457.34;5031089;28;20032;-34
2022/09/25 02:00:05;;;;;;;1.40;0.90;;;;;;;22.84;47.23;96454.16;5031549;28;20440;-35
2022/09/25 02:02:37;;;;;;;1.55;1.10;;;;;;;22.90;46.62;96455.63;5033511;28;20095;-34
2022/09/25 02:05:20;;;;;;;1.80;1.00;;;;;;;22.91;46.66;96457.13;5033339;28;20017;-34
2022/09/25 02:08:02;;;;;;;1.75;1.10;;;;;;;22.92;46.28;96455.13;5033420;28;20528;-34
2022/09/25 02:10:38;;;;;;;1.40;1.00;;;;;;;23.00;46.66;96456.09;5033363;28;20056;-34
2022/09/25 02:13:09;;;;;;;1.52;1.00;;;;;;;23.02;46.63;96459.09;5033104;28;20509;-34
2022/09/25 02:15:41;;;;;;;1.55;0.90;;;;;;;23.06;46.40;96454.06;5033612;28;20029;-34
2022/09/25 02:21:04;;;;;;;2.17;0.98;;;;;;;23.03;46.68;96438.47;5033158;28;20052;-34
2022/09/25 02:23:36;;;;;;;1.58;1.10;;;;;;;23.04;47.16;96434.47;5032929;28;20049;-34
2022/09/25 02:26:08;;;;;;;1.37;1.00;;;;;;;23.07;46.49;96416.09;5032945;28;20029;-34
2022/09/25 02:28:35;;;;;;;1.17;0.97;;;;;;;23.07;46.34;96405.78;5033014;28;20735;-34
2022/09/25 02:31:05;;;;;;;1.10;1.00;;;;;;;23.08;46.83;96401.75;5031716;28;20757;-35
2022/09/25 02:33:31;;;;;;;1.98;1.08;;;;;;;23.11;46.40;96392.44;5033093;28;20026;-34
2022/09/25 02:36:00;;;;;;;1.80;1.23;;;;;;;23.10;46.58;96398.50;5032784;28;20033;-33
2022/09/25 02:38:25;;;;;;;1.55;1.00;;;;;;;23.03;46.95;96396.25;5031504;28;20100;-34
2022/09/25 02:41:01;;;;;;;1.38;1.20;;;;;;;23.08;46.64;96385.16;5033564;28;20067;-34
2022/09/25 02:43:50;;;;;;;2.13;1.30;;;;;;;23.04;46.63;96370.84;5032917;28;20032;-34
2022/09/25 02:46:19;;;;;;;1.30;0.88;;;;;;;23.11;46.46;96364.03;5032854;28;20028;-34
2022/09/25 02:48:58;;;;;;;1.48;0.90;;;;;;;23.09;46.54;96364.53;5032909;28;20105;-34
2022/09/25 02:51:32;;;;;;;2.55;0.90;;;;;;;23.08;46.48;96359.53;5032983;28;20061;-34
2022/09/25 02:54:19;;;;;;;2.13;1.00;;;;;;;23.00;46.54;96359.28;5036628;28;20021;-34
2022/09/25 02:57:03;;;;;;;1.85;0.90;;;;;;;23.04;46.54;96370.84;5036287;28;20067;-34
2022/09/25 02:59:35;;;;;;;1.23;1.00;;;;;;;23.04;46.60;96376.38;5036098;28;20052;-34
2022/09/25 03:02:01;;;;;;;1.35;0.85;;;;;;;23.07;46.20;96372.59;5036119;28;20100;-34
2022/09/25 03:04:28;;;;;;;1.15;0.93;;;;;;;23.01;46.75;96371.84;5036149;28;20494;-35
2022/09/25 03:06:56;;;;;;;1.55;1.00;;;;;;;23.05;46.75;96366.06;5036336;28;20466;-34
2022/09/25 03:09:22;;;;;;;1.67;1.00;;;;;;;23.04;46.67;96353.50;5036362;28;20026;-34
2022/09/25 03:11:48;;;;;;;1.73;0.90;;;;;;;23.04;46.55;96359.78;5036002;28;20558;-35
2022/09/25 03:14:13;;;;;;;1.75;0.90;;;;;;;23.05;46.59;96366.81;5035931;28;20026;-34
2022/09/25 03:16:39;;;;;;;1.10;0.90;;;;;;;23.03;46.39;96372.09;5035869;28;20075;-34
2022/09/25 03:19:05;;;;;;;4.70;1.00;;;;;;;23.07;46.55;96364.28;5035793;28;20060;-34
2022/09/25 03:21:31;;;;;;;2.60;1.00;;;;;;;23.02;46.59;96373.38;5036106;28;20045;-34
2022/09/25 03:23:57;;;;;;;1.35;1.00;;;;;;;22.94;46.79;96377.94;5035918;28;20029;-34
2022/09/25 03:26:23;;;;;;;1.13;1.00;;;;;;;23.02;46.21;96380.91;5035773;28;20535;-34
2022/09/25 03:28:50;;;;;;;1.20;0.90;;;;;;;23.00;46.37;96367.59;5036137;28;20025;-34
2022/09/25 03:31:15;;;;;;;1.70;0.88;;;;;;;23.06;46.30;96368.31;5035669;28;20398;-34
2022/09/25 03:33:42;;;;;;;1.70;1.00;;;;;;;23.03;46.48;96369.34;5035648;28;20112;-34
2022/09/25 03:36:21;;;;;;;1.00;0.90;;;;;;;23.02;46.45;96364.31;5035386;28;20091;-32
2022/09/25 03:38:49;;;;;;;1.85;1.00;;;;;;;23.04;46.31;96372.84;5035616;28;20029;-34
2022/09/25 03:41:18;;;;;;;1.23;0.90;;;;;;;23.02;46.68;96367.84;5035386;28;20029;-34
2022/09/25 03:43:46;;;;;;;1.75;1.00;;;;;;;23.02;46.86;96359.53;5034269;28;20025;-34
2022/09/25 03:46:15;;;;;;;1.10;0.95;;;;;;;22.93;46.69;96351.53;5035563;28;20029;-34
2022/09/25 03:48:41;;;;;;;1.10;0.90;;;;;;;23.00;46.69;96345.47;5035716;28;20036;-34
2022/09/25 03:51:07;;;;;;;2.42;1.20;;;;;;;23.02;46.73;96353.25;5035442;28;20025;-34
2022/09/25 03:53:33;;;;;;;1.92;0.90;;;;;;;23.00;46.30;96359.28;5035715;28;20495;-34
2022/09/25 03:56:04;;;;;;;1.58;0.90;;;;;;;23.07;46.47;96389.19;5035128;28;20104;-34
2022/09/25 03:58:32;;;;;;;1.25;0.90;;;;;;;22.99;46.43;96412.38;5035111;28;20030;-34
2022/09/25 04:00:57;;;;;;;1.05;0.77;;;;;;;22.97;46.86;96415.66;5035202;28;20033;-34
2022/09/25 04:03:28;;;;;;;1.40;0.90;;;;;;;23.00;46.66;96409.06;5035040;28;20074;-34
2022/09/25 04:05:54;;;;;;;1.65;1.00;;;;;;;23.02;46.28;96401.03;5035636;28;20033;-34
2022/09/25 04:08:22;;;;;;;0.90;0.80;;;;;;;23.08;46.43;96396.22;5035038;28;20052;-34
2022/09/25 04:10:47;;;;;;;1.00;0.90;;;;;;;23.06;46.61;96395.97;5035079;28;20045;-34
2022/09/25 04:13:13;;;;;;;1.58;1.10;;;;;;;23.05;46.75;96393.72;5033849;28;20096;-34
2022/09/25 04:15:41;;;;;;;1.90;1.00;;;;;;;23.08;46.69;96406.53;5035013;28;20543;-34
2022/09/25 04:18:06;;;;;;;1.77;1.05;;;;;;;23.07;46.56;96407.81;5034605;28;20048;-35
2022/09/25 04:20:32;;;;;;;1.75;1.02;;;;;;;23.05;46.60;96405.53;5034804;28;20065;-35
2022/09/25 04:22:58;;;;;;;1.35;1.00;;;;;;;23.06;46.73;96404.28;5034647;28;20048;-34
2022/09/25 04:25:24;;;;;;;2.40;1.05;;;;;;;23.03;46.89;96390.72;5034656;28;20373;-34
2022/09/25 04:27:57;;;;;;;1.10;0.90;;;;;;;23.07;46.61;96383.66;5034796;28;20068;-34
2022/09/25 04:30:23;;;;;;;;;;;;;;;22.99;46.99;96371.63;5035008;28;20485;-34
2022/09/25 04:35:33;;;;;;;2.25;1.10;;;;;;;23.02;46.91;96367.84;5034711;28;20424;-34
2022/09/25 04:37:59;;;;;;;1.55;0.90;;;;;;;23.02;46.41;96370.59;5034144;28;20053;-34
2022/09/25 04:40:25;;;;;;;1.77;1.00;;;;;;;23.02;46.96;96365.06;5034411;28;20025;-34
2022/09/25 04:42:57;;;;;;;2.50;0.90;;;;;;;23.01;46.85;96369.09;5034418;28;20082;-34
2022/09/25 04:45:25;;;;;;;1.10;1.00;;;;;;;23.02;47.04;96365.06;5034282;28;20112;-34
2022/09/25 04:47:54;;;;;;;1.23;0.90;;;;;;;23.02;47.11;96370.59;5034244;28;20025;-34
2022/09/25 04:50:20;;;;;;;1.23;0.90;;;;;;;23.00;47.01;96355.78;5034136;28;20032;-34
2022/09/25 04:52:47;;;;;;;2.35;0.95;;;;;;;22.92;47.24;96350.03;5034173;28;20032;-34
2022/09/25 04:55:12;;;;;;;1.08;0.85;;;;;;;22.97;46.96;96357.56;5034001;28;20029;-34
2022/09/25 04:57:38;;;;;;;1.65;1.05;;;;;;;23.02;47.15;96367.84;5034005;28;20031;-34
2022/09/25 05:00:05;;;;;;;1.10;1.00;;;;;;;23.02;46.84;96365.06;5033879;28;20025;-35
2022/09/25 05:02:30;;;;;;;3.03;1.20;;;;;;;22.98;47.24;96369.38;5034087;28;20052;-34
2022/09/25 05:04:56;;;;;;;1.15;0.80;;;;;;;23.00;47.06;96378.66;5033952;28;20048;-34
2022/09/25 05:07:21;;;;;;;1.30;1.00;;;;;;;23.01;47.24;96376.63;5033831;28;20029;-34
2022/09/25 05:09:47;;;;;;;2.63;1.35;;;;;;;22.97;47.18;96376.94;5033878;28;20021;-34
2022/09/25 05:12:12;;;;;;;1.75;1.00;;;;;;;23.04;46.55;96387.44;5034158;28;20025;-34
2022/09/25 05:14:39;;;;;;;1.80;0.90;;;;;;;23.04;46.98;96383.91;5033187;28;20033;-34
2022/09/25 05:17:05;;;;;;;1.15;0.80;;;;;;;23.09;46.86;96389.44;5033831;28;20049;-34
2022/09/25 05:19:31;;;;;;;1.38;0.90;;;;;;;23.07;47.00;96380.13;5033619;28;20500;-34
2022/09/25 05:21:56;;;;;;;1.50;1.00;;;;;;;23.09;46.71;96383.16;5033929;28;20377;-34
2022/09/25 05:24:22;;;;;;;1.88;1.08;;;;;;;23.09;46.95;96377.63;5033903;28;20032;-34
2022/09/25 05:26:47;;;;;;;1.50;1.00;;;;;;;23.10;47.20;96382.66;5033631;28;20025;-34
2022/09/25 05:29:13;;;;;;;1.45;0.80;;;;;;;23.11;47.26;96366.81;5033535;28;20053;-34
2022/09/25 05:31:38;;;;;;;2.75;0.90;;;;;;;23.05;46.94;96366.81;5033541;28;20033;-34
2022/09/25 05:34:04;;;;;;;1.45;1.02;;;;;;;23.05;46.97;96363.31;5033494;28;20075;-35
2022/09/25 05:36:29;;;;;;;1.70;0.90;;;;;;;23.03;47.10;96361.03;5033523;28;20520;-34
2022/09/25 05:38:55;;;;;;;1.45;0.95;;;;;;;23.04;46.95;96361.78;5033533;28;20026;-34
2022/09/25 05:41:20;;;;;;;1.23;0.90;;;;;;;23.04;46.79;96351.47;5033287;28;20021;-34
2022/09/25 05:43:46;;;;;;;1.20;0.88;;;;;;;23.05;47.19;96357.75;5033361;28;20045;-35
2022/09/25 05:46:12;;;;;;;1.33;1.00;;;;;;;23.10;47.01;96360.50;5033287;28;20025;-34
2022/09/25 05:48:38;;;;;;;1.48;1.08;;;;;;;23.05;46.74;96364.06;5033313;28;20040;-34
2022/09/25 05:51:04;;;;;;;1.30;1.00;;;;;;;23.04;46.99;96367.31;5033242;28;20496;-34
2022/09/25 05:53:30;;;;;;;1.95;0.93;;;;;;;23.04;46.91;96370.84;5030399;28;20026;-34
2022/09/25 05:55:58;;;;;;;2.45;1.20;;;;;;;23.04;47.07;96367.31;5011665;28;20033;-34
2022/09/25 05:58:24;;;;;;;1.55;1.02;;;;;;;23.06;47.58;96370.34;5011716;28;20034;-34
2022/09/25 06:00:50;;;;;;;2.55;1.10;;;;;;;23.03;47.29;96371.34;5011819;28;20095;-34
2022/09/25 06:03:17;;;;;;;2.53;0.95;;;;;;;23.02;47.46;96365.06;5011786;28;20022;-34
2022/09/25 06:05:45;;;;;;;2.70;0.98;;;;;;;23.03;47.38;96365.81;5011704;28;20026;-34
2022/09/25 06:08:12;;;;;;;2.15;1.10;;;;;;;23.09;46.90;96369.31;5011095;28;20092;-35
2022/09/25 06:10:39;;;;;;;1.70;1.20;;;;;;;23.05;46.95;96368.84;5011613;28;20049;-34
2022/09/25 06:13:04;;;;;;;2.03;1.17;;;;;;;23.06;47.08;96370.34;5010506;28;20026;-34
2022/09/25 06:15:36;;;;;;;1.50;1.00;;;;;;;23.03;46.80;96369.34;5011454;28;20033;-34
2022/09/25 06:18:06;;;;;;;1.27;1.00;;;;;;;23.05;46.95;96366.06;5011261;28;20034;-34
2022/09/25 06:20:32;;;;;;;1.83;1.05;;;;;;;23.03;47.24;96366.56;5011459;28;20022;-34
2022/09/25 06:22:59;;;;;;;1.88;1.40;;;;;;;23.02;47.28;96370.59;5011609;28;20039;-34
2022/09/25 06:25:28;;;;;;;1.60;1.00;;;;;;;23.06;46.98;96371.09;5011706;28;20390;-34
2022/09/25 06:27:55;;;;;;;1.60;1.10;;;;;;;23.03;47.43;96372.09;5013904;28;20402;-34
2022/09/25 06:30:23;;;;;;;1.25;1.00;;;;;;;23.02;47.23;96378.13;5014902;28;20056;-35
2022/09/25 06:32:55;;;;;;;1.50;0.95;;;;;;;23.05;46.74;96388.94;5015267;28;20022;-34
2022/09/25 06:35:21;;;;;;;;;;;;;;;23.03;47.39;96388.69;5015507;28;20075;-34
2022/09/25 06:37:46;;;;;;;1.83;1.10;;;;;;;23.07;47.01;96389.19;5015007;28;20004;-34
2022/09/25 06:40:12;;;;;;;1.63;1.13;;;;;;;23.01;47.34;96385.69;5014876;28;20026;-35
2022/09/25 06:42:37;;;;;;;3.08;1.20;;;;;;;23.03;47.20;96397.00;5014721;28;20033;-34
2022/09/25 06:45:03;;;;;;;2.58;1.20;;;;;;;23.03;47.31;96393.47;5014797;28;20080;-34
2022/09/25 06:47:29;;;;;;;1.55;1.10;;;;;;;23.00;47.54;96395.25;5015195;28;20064;-34
2022/09/25 06:49:54;;;;;;;1.88;1.10;;;;;;;23.04;47.57;96397.75;5015010;28;20033;-35
2022/09/25 06:52:19;;;;;;;1.80;1.00;;;;;;;23.03;47.44;96408.06;5015030;28;20037;-34
2022/09/25 06:54:45;;;;;;;1.02;0.95;;;;;;;23.03;47.51;96401.78;5014602;28;20363;-34
2022/09/25 06:57:11;;;;;;;3.22;1.33;;;;;;;23.03;47.42;96399.75;5014782;28;20021;-34
2022/09/25 06:59:37;;;;;;;2.25;1.30;;;;;;;23.04;47.66;96394.97;5014698;28;20033;-34
2022/09/25 07:04:50;;;;;;;1.80;1.05;;;;;;;23.08;47.46;96396.22;5014555;28;20075;-34
2022/09/25 07:07:19;;;;;;;2.00;1.13;;;;;;;23.01;47.33;96399.50;5014468;28;20509;-34
2022/09/25 07:09:48;;;;;;;3.42;1.30;;;;;;;23.04;47.62;96401.28;5014435;28;20029;-35
2022/09/25 07:12:20;;;;;;;1.85;1.30;;;;;;;23.07;47.40;96403.03;5013027;28;20406;-34
2022/09/25 07:14:46;;;;;;;3.00;1.45;;;;;;;23.10;47.44;96402.00;5014610;28;20025;-35
2022/09/25 07:17:13;;;;;;;1.30;1.00;;;;;;;23.04;47.94;96401.28;5014373;28;20034;-34
2022/09/25 07:19:38;;;;;;;1.65;1.10;;;;;;;23.03;47.58;96399.75;5014327;28;20117;-34
2022/09/25 07:22:04;;;;;;;2.05;1.20;;;;;;;23.07;47.33;96410.56;5014259;28;20177;-34
2022/09/25 07:24:30;;;;;;;1.73;1.23;;;;;;;23.05;48.06;96407.56;5014272;28;20531;-34
2022/09/25 07:26:55;;;;;;;1.88;1.30;;;;;;;23.06;47.41;96401.50;5014342;28;20406;-34
2022/09/25 07:29:21;;;;;;;1.73;1.08;;;;;;;23.07;48.13;96394.72;5021148;28;20018;-34
2022/09/25 07:31:46;;;;;;;2.03;1.50;;;;;;;23.05;48.01;96402.78;5035970;28;20022;-34
2022/09/25 07:34:12;;;;;;;3.30;1.88;;;;;;;22.16;51.93;96403.00;5035895;28;20030;-32
2022/09/25 07:36:39;;;;;;;4.53;1.40;;;;;;;22.17;52.14;96399.72;5035308;28;20489;-34
2022/09/25 07:39:05;;;;;;;4.95;1.40;;;;;;;22.53;51.06;96405.44;5035093;28;20028;-34
2022/09/25 07:41:31;;;;;;;2.28;1.42;;;;;;;22.67;51.15;96409.16;5035513;28;20100;-34
2022/09/25 07:43:57;;;;;;;3.05;1.23;;;;;;;22.85;49.80;96401.09;5035083;28;20100;-34
2022/09/25 07:46:27;;;;;;;1.92;1.20;;;;;;;23.01;49.50;96401.53;5035278;28;20026;-34
2022/09/25 07:48:53;;;;;;;3.65;1.48;;;;;;;23.03;48.96;96397.00;5035363;28;20043;-34
2022/09/25 07:51:22;;;;;;;3.85;1.38;;;;;;;23.02;49.63;96403.78;5035364;28;20037;-35
2022/09/25 07:53:47;;;;;;;2.13;1.27;;;;;;;23.05;49.24;96402.78;5035621;28;20021;-34
2022/09/25 07:56:13;;;;;;;1.73;1.20;;;;;;;22.93;49.32;96401.31;5035157;28;20040;-34
2022/09/25 07:58:39;;;;;;;2.08;1.35;;;;;;;22.91;49.36;96421.19;5035524;28;20030;-34
2022/09/25 08:01:07;;;;;;;1.42;1.20;;;;;;;22.96;49.62;96422.44;5035183;28;20021;-34
2022/09/25 08:03:33;;;;;;;4.07;1.35;;;;;;;22.98;49.40;96416.41;5033727;28;20017;-34
2022/09/25 08:06:11;;;;;;;2.97;1.38;;;;;;;23.03;49.59;96419.13;5035155;28;20054;-34
2022/09/25 08:08:41;;;;;;;2.70;1.33;;;;;;;22.97;49.56;96423.94;5035215;28;20036;-34
2022/09/25 08:11:12;;;;;;;1.73;1.20;;;;;;;22.93;49.54;96426.97;5035023;28;20101;-34
2022/09/25 08:13:39;;;;;;;1.80;1.17;;;;;;;22.93;49.73;96434.50;5034982;28;20026;-34
2022/09/25 08:16:12;;;;;;;3.67;1.23;;;;;;;22.89;49.30;96434.75;5034676;28;20037;-34
2022/09/25 08:18:41;;;;;;;2.72;1.00;;;;;;;22.96;49.47;96439.03;5034981;28;20025;-34
2022/09/25 08:21:09;;;;;;;3.00;1.25;;;;;;;22.94;49.68;96441.53;5035044;28;20506;-34
2022/09/25 08:23:35;;;;;;;1.83;1.05;;;;;;;22.88;50.64;96427.72;5034587;28;20113;-34
2022/09/25 08:26:00;;;;;;;2.63;1.20;;;;;;;22.91;49.87;96417.66;5034676;28;20028;-34
2022/09/25 08:28:27;;;;;;;2.17;1.20;;;;;;;22.98;50.39;96402.56;5034486;28;20029;-34
2022/09/25 08:30:53;;;;;;;2.97;1.33;;;;;;;22.87;50.86;96408.91;5034558;28;20386;-34
2022/09/25 08:33:18;;;;;;;2.30;1.42;;;;;;;22.85;50.77;96409.41;5034609;28;20029;-35
2022/09/25 08:35:54;;;;;;;4.65;1.80;;;;;;;22.94;50.74;96416.66;5034744;28;20033;-34
2022/09/25 08:38:20;;;;;;;3.10;1.13;;;;;;;22.91;50.23;96421.19;5034176;28;20045;-34
2022/09/25 08:41:03;;;;;;;2.30;1.40;;;;;;;23.02;50.09;96420.38;5034430;28;20499;-34
2022/09/25 08:43:31;;;;;;;2.70;1.42;;;;;;;22.99;49.99;96431.72;5034173;28;20026;-34
2022/09/25 08:49:04;;;;;;;2.35;1.17;;;;;;;22.92;50.42;96422.69;5033753;28;20056;-34
2022/09/25 08:51:38;;;;;;;2.13;1.35;;;;;;;23.05;50.36;96424.16;5032032;28;20040;-34
2022/09/25 08:54:04;;;;;;;1.38;1.13;;;;;;;23.06;50.63;96420.88;5033948;28;20438;-34
2022/09/25 08:56:32;;;;;;;2.08;1.13;;;;;;;22.89;51.13;96415.41;5033086;28;20480;-34
2022/09/25 08:59:25;;;;;;;2.20;1.10;;;;;;;22.99;50.80;96410.34;5034123;28;20075;-34
2022/09/25 09:01:54;;;;;;;2.13;1.30;;;;;;;23.04;50.83;96415.09;5032934;28;20037;-34
2022/09/25 09:04:43;;;;;;;2.25;1.00;;;;;;;23.02;50.65;96423.16;5033869;28;20575;-34
2022/09/25 09:07:20;;;;;;;3.50;1.25;;;;;;;23.06;50.17;96423.66;5034129;28;20029;-34
2022/09/25 09:09:53;;;;;;;1.27;1.10;;;;;;;22.93;50.73;96410.38;5034536;28;20017;-34
2022/09/25 09:12:27;;;;;;;2.10;1.50;;;;;;;23.08;50.43;96401.00;5033724;28;20079;-34
2022/09/25 09:15:05;;;;;;;1.58;1.00;;;;;;;23.10;50.17;96406.78;5033872;28;20044;-34
2022/09/25 09:17:40;;;;;;;1.33;1.08;;;;;;;23.08;50.94;96410.06;5033814;28;20025;-34
2022/09/25 09:20:16;;;;;;;2.53;1.52;;;;;;;22.66;52.76;96408.41;5033938;28;20076;-35
2022/09/25 09:22:47;;;;;;;2.20;1.27;;;;;;;22.90;51.84;96403.09;5033433;28;20025;-35
2022/09/25 09:25:24;;;;;;;2.53;1.20;;;;;;;23.00;51.57;96402.78;5033609;28;20056;-35
2022/09/25 09:27:56;;;;;;;1.52;1.15;;;;;;;23.04;51.17;96401.28;5034099;28;20111;-34
2022/09/25 09:30:33;;;;;;;2.00;1.13;;;;;;;22.81;51.33;96397.09;5031108;28;20112;-34
2022/09/25 09:33:17;;;;;;;1.30;1.10;;;;;;;22.88;50.62;96404.84;5032576;28;20033;-34
2022/09/25 09:36:12;;;;;;;1.90;1.13;;;;;;;22.90;51.41;96405.09;5031506;28;20022;-34
2022/09/25 09:38:52;;;;;;;1.55;1.17;;;;;;;22.83;51.82;96409.16;5018941;28;20525;-34
2022/09/25 09:41:20;;;;;;;3.53;1.95;;;;;;;22.86;51.56;96404.63;5014461;28;20034;-35
2022/09/25 09:43:56;;;;;;;2.13;1.20;;;;;;;23.01;51.99;96401.53;5012580;28;20040;-34
2022/09/25 09:46:40;;;;;;;1.80;1.10;;;;;;;23.01;51.30;96402.28;5013683;28;20064;-34
2022/09/25 09:49:14;;;;;;;2.20;1.10;;;;;;;22.86;52.05;96397.09;5013703;28;20347;-34
2022/09/25 09:51:56;;;;;;;3.17;1.33;;;;;;;22.98;51.84;96394.28;5014078;28;20032;-34
2022/09/25 09:54:34;;;;;;;1.45;1.13;;;;;;;22.84;51.53;96394.06;5013540;28;20026;-34
2022/09/25 09:57:02;;;;;;;2.67;1.33;;;;;;;23.05;51.00;96399.25;5013574;28;20029;-34
2022/09/25 09:59:47;;;;;;;1.92;1.10;;;;;;;23.03;51.83;96408.06;5013585;28;20037;-35
2022/09/25 10:02:32;;;;;;;1.90;1.17;;;;;;;23.04;51.64;96408.81;5016747;28;20505;-34
2022/09/25 10:05:02;;;;;;;2.95;1.30;;;;;;;23.05;51.58;96424.91;5017712;28;20025;-34
2022/09/25 10:07:30;;;;;;;3.35;1.50;;;;;;;22.94;51.42;96424.94;5017721;28;20033;-34
2022/09/25 10:09:56;;;;;;;1.20;0.80;;;;;;;22.81;51.91;96430.28;5017950;28;20378;-34
2022/09/25 10:12:33;;;;;;;3.25;1.30;;;;;;;22.90;51.95;96435.50;5016365;28;20021;-34
2022/09/25 10:15:06;;;;;;;1.30;1.10;;;;;;;23.06;51.39;96436.72;5017569;28;20175;-34
2022/09/25 10:17:34;;;;;;;;;;;;;;;22.98;52.12;96436.50;5018027;28;20018;-34
2022/09/25 10:20:11;;;;;;;2.42;1.40;;;;;;;22.96;52.43;96439.03;5017171;28;20361;-34
2022/09/25 10:22:41;;;;;;;2.50;1.33;;;;;;;22.97;52.18;96435.00;5017562;28;20030;-34
2022/09/25 10:25:07;;;;;;;2.42;1.00;;;;;;;22.81;52.35;96441.34;5017152;28;20116;-34
2022/09/25 10:27:37;;;;;;;3.13;1.73;;;;;;;22.77;52.92;96433.28;5017408;28;20103;-35
2022/09/25 10:30:08;;;;;;;2.85;1.23;;;;;;;22.94;52.48;96424.94;5017122;28;20033;-34
2022/09/25 10:32:56;;;;;;;2.92;1.25;;;;;;;23.04;52.22;96428.94;5017574;28;20064;-35
2022/09/25 10:35:44;;;;;;;2.35;1.38;;;;;;;22.78;53.19;96431.28;5017377;28;20398;-35
2022/09/25 10:38:28;;;;;;;2.25;1.40;;;;;;;22.79;53.77;96435.56;5016740;28;20091;-34
2022/09/25 10:41:05;;;;;;;2.95;1.52;;;;;;;22.80;53.72;96429.53;5017125;28;20068;-34
2022/09/25 10:43:30;;;;;;;2.13;1.10;;;;;;;22.59;54.62;96439.34;5016798;28;20030;-34
2022/09/25 10:46:11;;;;;;;3.13;1.38;;;;;;;22.77;53.87;96427.75;5016839;28;20221;-34
2022/09/25 10:51:22;;;;;;;2.15;1.42;;;;;;;22.94;52.85;96422.19;5016902;28;20037;-35
2022/09/25 10:53:50;;;;;;;2.67;1.10;;;;;;;22.84;52.77;96437.56;5016666;28;20017;-34
2022/09/25 10:56:25;;;;;;;2.88;1.58;;;;;;;22.80;53.25;96428.75;5016568;28;20025;-34
2022/09/25 10:58:55;;;;;;;1.45;1.17;;;;;;;22.82;53.31;96437.31;5017013;28;20064;-34
2022/09/25 11:01:38;;;;;;;2.47;1.40;;;;;;;22.91;53.06;96437.78;5016590;28;20026;-34
2022/09/25 11:04:15;;;;;;;3.85;2.30;;;;;;;22.78;53.51;96437.56;5016424;28;20108;-34
2022/09/25 11:06:48;;;;;;;3.08;1.83;;;;;;;22.73;55.80;96437.56;5016407;28;20029;-34
2022/09/25 11:09:16;;;;;;;3.63;2.33;;;;;;;22.58;54.62;96429.56;5016554;28;20455;-34
2022/09/25 11:11:44;;;;;;;3.40;2.28;;;;;;;22.64;54.02;96426.75;5014785;28;20445;-34
2022/09/25 11:14:22;;;;;;;3.80;2.35;;;;;;;22.89;53.92;96425.72;5014277;28;20109;-34
2022/09/25 11:16:54;;;;;;;3.28;2.30;;;;;;;22.97;53.70;96426.72;5016537;28;20026;-34
2022/09/25 11:19:27;;;;;;;3.92;2.35;;;;;;;23.01;52.94;96427.19;5016141;28;20428;-34
2022/09/25 11:22:08;;;;;;;3.85;1.90;;;;;;;23.08;53.66;96414.84;5015811;28;20084;-34
2022/09/25 11:25:00;;;;;;;3.67;1.92;;;;;;;23.09;53.07;96430.94;5015923;28;20033;-34
2022/09/25 11:27:54;;;;;;;3.53;2.00;;;;;;;22.80;53.15;96437.06;5016227;28;20026;-34
2022/09/25 11:30:21;;;;;;;2.92;1.67;;;;;;;22.66;54.53;96435.31;5015928;28;20018;-34
2022/09/25 11:33:19;;;;;;;3.53;2.05;;;;;;;22.75;54.23;96437.81;5014717;28;20389;-34
2022/09/25 11:36:09;;;;;;;2.80;1.60;;;;;;;22.54;54.62;96438.09;5015975;28;20028;-34
2022/09/25 11:41:59;;;;;;;2.35;1.60;;;;;;;22.99;53.57;96434.50;5016465;28;20029;-34
2022/09/25 11:44:44;;;;;;;2.65;1.40;;;;;;;22.83;52.97;96425.00;5015945;28;20021;-34
2022/09/25 11:47:26;;;;;;;3.47;1.80;;;;;;;22.87;53.80;96422.72;5015746;28;20088;-34
2022/09/25 11:49:53;;;;;;;2.78;1.60;;;;;;;22.74;54.00;96414.94;5015646;28;20032;-34
2022/09/25 11:52:27;;;;;;;2.97;1.45;;;;;;;22.87;53.38;96425.50;5015583;28;20065;-35
2022/09/25 11:55:26;;;;;;;2.45;1.60;;;;;;;22.95;53.65;96420.94;5015376;28;20534;-34
2022/09/25 11:58:27;;;;;;;2.30;1.38;;;;;;;22.83;53.74;96427.75;5015573;28;20390;-34
2022/09/25 12:01:14;;;;;;;2.50;1.27;;;;;;;22.88;53.75;96418.69;5015462;28;20037;-34
2022/09/25 12:04:06;;;;;;;2.25;1.38;;;;;;;22.79;53.64;96421.72;5015556;28;20068;-34
2022/09/25 12:07:04;;;;;;;2.45;1.13;;;;;;;22.69;54.92;96412.19;5015307;28;20057;-34
2022/09/25 12:10:18;;;;;;;2.90;1.50;;;;;;;22.71;54.44;96417.97;5015179;28;20055;-35